createdAt,value
2022-11-25T00:00:02.109Z,57.53
2022-11-25T00:01:03.904Z,57.54
2022-11-25T00:02:07.314Z,57.45
2022-11-25T00:03:09.257Z,57.41
2022-11-25T00:04:11.110Z,57.41
2022-11-25T00:05:12.927Z,57.42
2022-11-25T00:06:14.730Z,57.50
2022-11-25T00:07:16.618Z,57.50
2022-11-25T00:08:18.430Z,57.57
2022-11-25T00:09:20.253Z,57.57
2022-11-25T00:10:22.085Z,57.54
2022-11-25T00:11:23.876Z,57.51
2022-11-25T00:12:25.739Z,57.48
2022-11-25T00:13:27.539Z,57.42
2022-11-25T00:14:29.365Z,57.31
2022-11-25T00:15:31.192Z,57.30
2022-11-25T00:16:33.141Z,57.25
2022-11-25T00:17:35.052Z,57.22
2022-11-25T00:18:36.909Z,57.27
2022-11-25T00:19:38.718Z,57.30
2022-11-25T00:20:40.612Z,57.24
2022-11-25T00:21:42.448Z,57.24
2022-11-25T00:22:44.305Z,57.28
2022-11-25T00:23:46.314Z,57.33
2022-11-25T00:24:48.108Z,57.29
2022-11-25T00:25:49.906Z,57.31
2022-11-25T00:26:51.830Z,57.38
2022-11-25T00:27:53.650Z,57.36
2022-11-25T00:28:55.430Z,57.34
2022-11-25T00:29:57.260Z,57.35
2022-11-25T00:30:59.199Z,57.22
2022-11-25T00:32:01.080Z,57.18
2022-11-25T00:33:02.962Z,57.12
2022-11-25T00:34:04.774Z,57.09
2022-11-25T00:35:06.592Z,57.08
2022-11-25T00:36:08.389Z,57.03
2022-11-25T00:37:10.203Z,56.94
2022-11-25T00:38:12.050Z,56.88
2022-11-25T00:39:13.971Z,56.82
2022-11-25T00:40:15.755Z,56.77
2022-11-25T00:41:17.568Z,56.73
2022-11-25T00:42:19.394Z,56.71
2022-11-25T00:43:21.240Z,56.67
2022-11-25T00:44:23.064Z,56.59
2022-11-25T00:45:24.940Z,56.59
2022-11-25T00:46:26.863Z,56.59
2022-11-25T00:47:28.692Z,56.54
2022-11-25T00:48:30.572Z,56.50
2022-11-25T00:49:32.349Z,56.42
2022-11-25T00:50:34.064Z,56.34
2022-11-25T00:51:35.839Z,56.26
2022-11-25T00:52:37.642Z,56.15
2022-11-25T00:53:39.491Z,56.17
2022-11-25T00:54:41.332Z,56.12
2022-11-25T00:55:43.134Z,56.08
2022-11-25T00:56:45.064Z,56.02
2022-11-25T00:57:46.893Z,56.02
2022-11-25T00:58:48.719Z,56.00
2022-11-25T00:59:50.505Z,55.96
2022-11-25T01:00:52.440Z,55.99
2022-11-25T01:01:54.301Z,56.01
2022-11-25T01:02:56.201Z,56.01
2022-11-25T01:03:58.082Z,55.98
2022-11-25T01:04:59.904Z,55.97
2022-11-25T01:06:01.734Z,55.87
2022-11-25T01:07:03.545Z,55.95
2022-11-25T01:08:05.368Z,56.03
2022-11-25T01:09:07.218Z,56.01
2022-11-25T01:10:09.277Z,56.00
2022-11-25T01:11:11.068Z,56.02
2022-11-25T01:12:12.870Z,56.00
2022-11-25T01:13:14.675Z,56.06
2022-11-25T01:14:16.501Z,56.16
2022-11-25T01:15:18.214Z,56.22
2022-11-25T01:16:20.154Z,56.24
2022-11-25T01:17:21.940Z,56.28
2022-11-25T01:18:23.759Z,56.27
2022-11-25T01:19:25.597Z,56.31
2022-11-25T01:20:27.479Z,56.33
2022-11-25T01:21:29.276Z,56.35
2022-11-25T01:22:31.085Z,56.29
2022-11-25T01:23:32.878Z,56.28
2022-11-25T01:24:35.099Z,56.30
2022-11-25T01:25:37.149Z,56.31
2022-11-25T01:26:39.051Z,56.32
2022-11-25T01:27:40.858Z,56.31
2022-11-25T01:28:42.666Z,56.34
2022-11-25T01:29:44.541Z,56.32
2022-11-25T01:30:46.580Z,56.35
2022-11-25T01:31:48.507Z,56.40
2022-11-25T01:32:50.418Z,56.53
2022-11-25T01:33:52.242Z,56.54
2022-11-25T01:35:06.156Z,56.62
2022-11-25T01:37:28.012Z,56.69
2022-11-25T01:38:29.803Z,56.74
2022-11-25T01:39:33.176Z,56.74
2022-11-25T01:40:35.277Z,56.62
2022-11-25T01:41:37.097Z,56.66
2022-11-25T01:42:38.894Z,56.72
2022-11-25T01:43:40.703Z,56.83
2022-11-25T01:44:42.512Z,56.85
2022-11-25T01:45:44.388Z,56.79
2022-11-25T01:46:46.391Z,56.87
2022-11-25T01:47:48.192Z,57.05
2022-11-25T01:48:49.972Z,57.20
2022-11-25T01:49:51.788Z,57.20
2022-11-25T01:50:53.726Z,57.22
2022-11-25T01:51:55.513Z,57.26
2022-11-25T01:52:57.340Z,57.17
2022-11-25T01:53:59.150Z,57.10
2022-11-25T01:55:00.960Z,57.08
2022-11-25T01:56:02.827Z,57.14
2022-11-25T01:57:04.893Z,57.21
2022-11-25T01:58:06.701Z,57.21
2022-11-25T01:59:08.519Z,57.14
2022-11-25T02:00:10.436Z,57.15
2022-11-25T02:01:12.310Z,57.15
2022-11-25T02:02:14.098Z,57.19
2022-11-25T02:03:16.107Z,57.22
2022-11-25T02:04:17.915Z,57.17
2022-11-25T02:05:19.731Z,57.14
2022-11-25T02:06:21.588Z,57.18
2022-11-25T02:07:23.472Z,57.23
2022-11-25T02:08:25.324Z,57.30
2022-11-25T02:09:27.118Z,57.26
2022-11-25T02:10:29.015Z,57.32
2022-11-25T02:11:30.868Z,57.30
2022-11-25T02:12:32.870Z,57.28
2022-11-25T02:13:34.668Z,57.33
2022-11-25T02:14:36.782Z,57.37
2022-11-25T02:15:38.875Z,57.42
2022-11-25T02:16:40.753Z,57.38
2022-11-25T02:17:42.544Z,57.44
2022-11-25T02:18:44.340Z,57.46
2022-11-25T02:19:46.149Z,57.38
2022-11-25T02:20:47.971Z,57.32
2022-11-25T02:21:49.835Z,57.27
2022-11-25T02:22:51.629Z,57.21
2022-11-25T02:23:53.434Z,57.20
2022-11-25T02:24:55.225Z,57.09
2022-11-25T02:25:57.083Z,57.07
2022-11-25T02:26:59.037Z,57.03
2022-11-25T02:28:00.922Z,57.07
2022-11-25T02:29:02.727Z,57.09
2022-11-25T02:30:04.675Z,57.03
2022-11-25T02:31:06.508Z,56.98
2022-11-25T02:32:08.473Z,56.99
2022-11-25T02:33:10.330Z,56.96
2022-11-25T02:34:12.137Z,56.92
2022-11-25T02:35:13.919Z,56.92
2022-11-25T02:36:15.825Z,56.94
2022-11-25T02:37:17.670Z,56.93
2022-11-25T02:38:19.400Z,56.91
2022-11-25T02:39:21.200Z,56.88
2022-11-25T02:40:23.203Z,56.89
2022-11-25T02:41:25.019Z,56.87
2022-11-25T02:42:26.876Z,56.94
2022-11-25T02:43:28.928Z,56.92
2022-11-25T02:44:30.735Z,56.98
2022-11-25T02:45:32.588Z,57.03
2022-11-25T02:46:34.460Z,57.04
2022-11-25T02:47:36.319Z,57.07
2022-11-25T02:49:07.359Z,57.08
2022-11-25T02:49:41.748Z,57.09
2022-11-25T02:50:43.561Z,57.10
2022-11-25T02:51:45.372Z,57.15
2022-11-25T02:52:47.215Z,57.06
2022-11-25T02:53:49.022Z,56.97
2022-11-25T02:54:50.823Z,56.98
2022-11-25T02:55:52.638Z,57.01
2022-11-25T02:56:54.451Z,57.09
2022-11-25T02:57:56.389Z,57.09
2022-11-25T02:58:58.466Z,57.12
2022-11-25T03:00:00.270Z,57.11
2022-11-25T03:01:02.091Z,57.05
2022-11-25T03:02:04.009Z,57.06
2022-11-25T03:03:09.400Z,57.02
2022-11-25T03:04:11.259Z,56.98
2022-11-25T03:05:13.059Z,56.96
2022-11-25T03:06:14.877Z,56.96
2022-11-25T03:07:16.710Z,56.90
2022-11-25T03:08:18.525Z,56.84
2022-11-25T03:09:20.328Z,56.82
2022-11-25T03:10:22.222Z,56.78
2022-11-25T03:11:24.035Z,56.71
2022-11-25T03:12:25.953Z,56.65
2022-11-25T03:13:27.820Z,56.59
2022-11-25T03:14:29.661Z,56.48
2022-11-25T03:15:31.534Z,56.36
2022-11-25T03:16:33.566Z,56.34
2022-11-25T03:17:35.329Z,56.30
2022-11-25T03:18:37.186Z,56.22
2022-11-25T03:19:39.004Z,56.11
2022-11-25T03:20:40.906Z,56.09
2022-11-25T03:21:42.708Z,56.03
2022-11-25T03:22:44.514Z,56.14
2022-11-25T03:23:46.378Z,56.06
2022-11-25T03:24:48.171Z,56.13
2022-11-25T03:25:49.980Z,56.14
2022-11-25T03:26:51.783Z,56.10
2022-11-25T03:27:53.583Z,56.11
2022-11-25T03:28:55.457Z,56.09
2022-11-25T03:29:57.335Z,56.04
2022-11-25T03:30:59.382Z,55.92
2022-11-25T03:32:04.316Z,55.86
2022-11-25T03:33:04.810Z,55.72
2022-11-25T03:34:06.649Z,55.69
2022-11-25T03:35:08.466Z,55.80
2022-11-25T03:36:10.482Z,55.78
2022-11-25T03:37:12.359Z,55.71
2022-11-25T03:38:14.196Z,55.58
2022-11-25T03:39:16.053Z,55.63
2022-11-25T03:40:17.859Z,55.68
2022-11-25T03:41:19.675Z,55.56
2022-11-25T03:42:21.479Z,55.57
2022-11-25T03:43:23.282Z,55.69
2022-11-25T03:44:25.144Z,55.81
2022-11-25T03:45:27.015Z,55.87
2022-11-25T03:46:28.918Z,55.96
2022-11-25T03:47:30.722Z,55.94
2022-11-25T03:48:32.521Z,55.84
2022-11-25T03:49:34.382Z,55.81
2022-11-25T03:50:36.191Z,55.74
2022-11-25T03:51:37.990Z,55.77
2022-11-25T03:52:39.798Z,55.80
2022-11-25T03:53:41.602Z,55.93
2022-11-25T03:54:43.458Z,55.97
2022-11-25T03:55:45.274Z,55.97
2022-11-25T03:56:47.074Z,55.93
2022-11-25T03:57:48.875Z,55.90
2022-11-25T03:58:50.692Z,55.82
2022-11-25T03:59:52.552Z,55.76
2022-11-25T04:00:54.782Z,55.60
2022-11-25T04:01:56.725Z,55.49
2022-11-25T04:02:58.537Z,55.51
2022-11-25T04:04:00.336Z,55.50
2022-11-25T04:05:02.189Z,55.48
2022-11-25T04:06:04.101Z,55.45
2022-11-25T04:07:05.904Z,55.40
2022-11-25T04:08:07.774Z,55.34
2022-11-25T04:09:09.604Z,55.36
2022-11-25T04:10:11.555Z,55.34
2022-11-25T04:11:13.366Z,55.28
2022-11-25T04:12:15.174Z,55.28
2022-11-25T04:13:16.993Z,55.25
2022-11-25T04:14:18.812Z,55.21
2022-11-25T04:15:21.410Z,55.12
2022-11-25T04:16:23.469Z,55.22
2022-11-25T04:17:25.353Z,55.26
2022-11-25T04:18:27.150Z,55.24
2022-11-25T04:19:28.959Z,55.34
2022-11-25T04:20:30.919Z,55.38
2022-11-25T04:21:32.728Z,55.33
2022-11-25T04:22:34.533Z,55.31
2022-11-25T04:23:36.345Z,55.22
2022-11-25T04:24:38.436Z,55.19
2022-11-25T04:25:40.312Z,55.21
2022-11-25T04:26:42.240Z,55.15
2022-11-25T04:27:44.064Z,55.10
2022-11-25T04:28:45.870Z,55.12
2022-11-25T04:29:47.668Z,55.12
2022-11-25T04:30:49.559Z,55.09
2022-11-25T04:31:51.371Z,55.10
2022-11-25T04:32:53.165Z,55.07
2022-11-25T04:33:54.973Z,55.02
2022-11-25T04:34:56.788Z,55.06
2022-11-25T04:35:58.654Z,55.07
2022-11-25T04:37:00.559Z,55.15
2022-11-25T04:38:02.367Z,55.18
2022-11-25T04:39:04.168Z,55.20
2022-11-25T04:40:06.080Z,55.13
2022-11-25T04:41:07.922Z,55.08
2022-11-25T04:42:09.725Z,55.07
2022-11-25T04:43:11.527Z,55.02
2022-11-25T04:44:13.346Z,55.00
2022-11-25T04:45:24.516Z,54.90
2022-11-25T04:46:18.860Z,54.83
2022-11-25T04:47:20.809Z,54.85
2022-11-25T04:48:22.619Z,54.91
2022-11-25T04:49:24.429Z,54.95
2022-11-25T04:50:26.350Z,54.97
2022-11-25T04:51:28.205Z,54.88
2022-11-25T04:52:30.036Z,54.85
2022-11-25T04:53:31.841Z,54.82
2022-11-25T04:54:33.902Z,54.76
2022-11-25T04:55:35.852Z,54.77
2022-11-25T04:56:37.813Z,54.78
2022-11-25T04:57:39.613Z,54.82
2022-11-25T04:58:41.424Z,54.82
2022-11-25T04:59:43.207Z,54.88
2022-11-25T05:00:45.006Z,54.94
2022-11-25T05:01:46.947Z,55.05
2022-11-25T05:02:48.961Z,55.04
2022-11-25T05:03:55.977Z,55.01
2022-11-25T05:04:54.384Z,54.93
2022-11-25T05:05:56.206Z,54.86
2022-11-25T05:06:58.421Z,54.83
2022-11-25T05:08:00.244Z,54.86
2022-11-25T05:09:02.047Z,54.90
2022-11-25T05:10:03.838Z,54.90
2022-11-25T05:11:05.812Z,54.88
2022-11-25T05:12:07.687Z,54.82
2022-11-25T05:13:09.508Z,54.78
2022-11-25T05:14:11.330Z,54.83
2022-11-25T05:15:13.137Z,54.81
2022-11-25T05:16:14.962Z,54.82
2022-11-25T05:17:16.793Z,54.86
2022-11-25T05:18:18.782Z,54.82
2022-11-25T05:19:20.581Z,54.79
2022-11-25T05:20:22.470Z,54.80
2022-11-25T05:21:24.175Z,54.80
2022-11-25T05:22:26.042Z,54.84
2022-11-25T05:23:30.338Z,54.83
2022-11-25T05:24:32.183Z,54.89
2022-11-25T05:25:33.984Z,54.92
2022-11-25T05:26:35.889Z,54.93
2022-11-25T05:27:37.730Z,54.89
2022-11-25T05:28:39.527Z,54.87
2022-11-25T05:29:41.309Z,54.89
2022-11-25T05:30:43.235Z,54.87
2022-11-25T05:31:45.002Z,54.93
2022-11-25T05:32:46.857Z,55.07
2022-11-25T05:33:48.696Z,55.08
2022-11-25T05:34:50.505Z,55.09
2022-11-25T05:35:52.350Z,55.07
2022-11-25T05:36:54.432Z,55.08
2022-11-25T05:37:56.389Z,55.03
2022-11-25T05:38:58.201Z,55.08
2022-11-25T05:40:00.019Z,55.17
2022-11-25T05:41:01.818Z,55.26
2022-11-25T05:42:03.607Z,55.25
2022-11-25T05:43:05.461Z,55.34
2022-11-25T05:44:07.279Z,55.33
2022-11-25T05:45:09.118Z,55.37
2022-11-25T05:46:11.234Z,55.34
2022-11-25T05:47:13.036Z,55.37
2022-11-25T05:48:14.901Z,55.35
2022-11-25T05:49:16.757Z,55.42
2022-11-25T05:50:18.659Z,55.44
2022-11-25T05:51:20.461Z,55.46
2022-11-25T05:52:22.252Z,55.47
2022-11-25T05:53:24.162Z,55.46
2022-11-25T05:54:25.959Z,55.40
2022-11-25T05:55:29.567Z,55.38
2022-11-25T05:56:31.710Z,55.52
2022-11-25T05:57:33.521Z,55.59
2022-11-25T05:58:35.368Z,55.60
2022-11-25T05:59:37.155Z,55.63
2022-11-25T06:00:39.285Z,55.68
2022-11-25T06:01:41.092Z,55.69
2022-11-25T06:02:43.017Z,55.67
2022-11-25T06:03:45.073Z,55.63
2022-11-25T06:04:46.967Z,55.63
2022-11-25T06:05:48.790Z,55.64
2022-11-25T06:06:50.727Z,55.59
2022-11-25T06:07:52.640Z,55.55
2022-11-25T06:08:54.498Z,55.48
2022-11-25T06:10:01.526Z,55.42
2022-11-25T06:10:59.891Z,55.42
2022-11-25T06:12:01.695Z,55.34
2022-11-25T06:13:03.571Z,55.33
2022-11-25T06:14:05.411Z,55.27
2022-11-25T06:15:07.228Z,55.26
2022-11-25T06:16:09.091Z,55.20
2022-11-25T06:17:10.940Z,55.17
2022-11-25T06:18:12.772Z,55.11
2022-11-25T06:19:14.686Z,55.06
2022-11-25T06:20:16.711Z,55.04
2022-11-25T06:21:21.015Z,55.06
2022-11-25T06:22:22.835Z,55.05
2022-11-25T06:23:24.671Z,55.01
2022-11-25T06:24:26.523Z,55.02
2022-11-25T06:25:28.344Z,54.97
2022-11-25T06:26:30.270Z,54.90
2022-11-25T06:27:56.978Z,54.88
2022-11-25T06:28:35.752Z,54.80
2022-11-25T06:29:37.623Z,54.79
2022-11-25T06:30:39.523Z,54.77
2022-11-25T06:31:41.334Z,54.81
2022-11-25T06:32:43.248Z,54.86
2022-11-25T06:33:45.053Z,54.92
2022-11-25T06:34:46.910Z,54.93
2022-11-25T06:35:48.797Z,54.86
2022-11-25T06:36:50.701Z,54.78
2022-11-25T06:37:52.529Z,54.80
2022-11-25T06:38:54.331Z,54.84
2022-11-25T06:39:56.208Z,54.80
2022-11-25T06:41:00.416Z,54.75
2022-11-25T06:42:01.850Z,54.73
2022-11-25T06:43:05.917Z,54.75
2022-11-25T06:44:07.763Z,54.81
2022-11-25T06:45:09.623Z,54.74
2022-11-25T06:46:11.591Z,54.55
2022-11-25T06:47:13.454Z,54.76
2022-11-25T06:48:15.287Z,54.75
2022-11-25T06:49:17.099Z,54.74
2022-11-25T06:50:19.068Z,54.80
2022-11-25T06:51:21.021Z,54.80
2022-11-25T06:52:22.802Z,54.87
2022-11-25T06:53:24.628Z,54.81
2022-11-25T06:54:26.427Z,54.79
2022-11-25T06:55:28.275Z,54.76
2022-11-25T06:56:30.200Z,54.78
2022-11-25T06:57:31.985Z,54.70
2022-11-25T06:58:36.420Z,54.73
2022-11-25T06:59:37.451Z,54.75
2022-11-25T07:00:39.329Z,54.40
2022-11-25T07:01:41.235Z,54.40
2022-11-25T07:02:48.005Z,54.74
2022-11-25T07:03:46.715Z,54.75
2022-11-25T07:04:48.460Z,54.74
2022-11-25T07:05:50.323Z,54.75
2022-11-25T07:06:52.281Z,54.73
2022-11-25T07:07:54.263Z,54.65
2022-11-25T07:08:56.155Z,54.64
2022-11-25T07:09:57.998Z,54.62
2022-11-25T07:10:59.953Z,54.56
2022-11-25T07:12:01.751Z,54.55
2022-11-25T07:13:03.577Z,54.56
2022-11-25T07:14:05.461Z,54.60
2022-11-25T07:15:07.263Z,54.60
2022-11-25T07:16:09.256Z,54.59
2022-11-25T07:17:12.372Z,54.62
2022-11-25T07:18:14.335Z,54.60
2022-11-25T07:19:16.155Z,54.63
2022-11-25T07:20:18.189Z,54.62
2022-11-25T07:21:20.029Z,54.65
2022-11-25T07:22:21.910Z,54.61
2022-11-25T07:23:23.728Z,54.55
2022-11-25T07:24:25.542Z,54.44
2022-11-25T07:25:30.661Z,54.45
2022-11-25T07:26:31.112Z,54.38
2022-11-25T07:27:32.951Z,54.35
2022-11-25T07:28:34.759Z,54.36
2022-11-25T07:29:57.919Z,54.33
2022-11-25T07:31:22.767Z,54.35
2022-11-25T07:31:43.999Z,54.41
2022-11-25T07:32:46.883Z,54.47
2022-11-25T07:33:48.972Z,54.54
2022-11-25T07:34:50.773Z,54.55
2022-11-25T07:35:52.593Z,54.56
2022-11-25T07:36:54.662Z,54.62
2022-11-25T07:37:56.535Z,54.66
2022-11-25T07:38:58.347Z,54.61
2022-11-25T07:40:00.171Z,54.53
2022-11-25T07:41:01.963Z,54.50
2022-11-25T07:42:03.832Z,54.47
2022-11-25T07:43:05.639Z,54.40
2022-11-25T07:44:07.434Z,54.30
2022-11-25T07:45:09.244Z,54.30
2022-11-25T07:46:11.285Z,54.28
2022-11-25T07:47:13.109Z,54.31
2022-11-25T07:48:14.923Z,54.27
2022-11-25T07:49:17.747Z,54.28
2022-11-25T07:50:19.582Z,54.28
2022-11-25T07:51:21.379Z,54.20
2022-11-25T07:52:23.249Z,54.23
2022-11-25T07:53:25.120Z,54.29
2022-11-25T07:54:26.954Z,54.34
2022-11-25T07:55:28.756Z,54.38
2022-11-25T07:56:30.660Z,54.41
2022-11-25T07:57:32.535Z,54.35
2022-11-25T07:58:34.350Z,54.36
2022-11-25T07:59:36.338Z,54.38
2022-11-25T08:00:38.369Z,54.44
2022-11-25T08:01:40.220Z,54.57
2022-11-25T08:02:42.102Z,54.63
2022-11-25T08:03:43.948Z,54.57
2022-11-25T08:04:45.746Z,54.55
2022-11-25T08:05:47.567Z,54.49
2022-11-25T08:06:49.579Z,54.46
2022-11-25T08:07:52.005Z,54.45
2022-11-25T08:08:53.877Z,54.46
2022-11-25T08:09:55.680Z,54.49
2022-11-25T08:10:57.601Z,54.54
2022-11-25T08:11:59.418Z,54.55
2022-11-25T08:13:01.268Z,54.51
2022-11-25T08:14:03.088Z,54.34
2022-11-25T08:15:04.897Z,54.34
2022-11-25T08:16:06.948Z,54.46
2022-11-25T08:17:08.806Z,54.48
2022-11-25T08:18:10.648Z,54.53
2022-11-25T08:19:12.464Z,54.50
2022-11-25T08:20:14.400Z,54.52
2022-11-25T08:21:16.209Z,54.50
2022-11-25T08:22:18.021Z,54.56
2022-11-25T08:23:19.882Z,54.52
2022-11-25T08:24:21.865Z,54.42
2022-11-25T08:25:23.664Z,54.36
2022-11-25T08:26:25.576Z,54.34
2022-11-25T08:27:27.384Z,54.32
2022-11-25T08:28:29.254Z,54.31
2022-11-25T08:29:31.088Z,54.32
2022-11-25T08:30:32.996Z,54.36
2022-11-25T08:31:34.850Z,54.38
2022-11-25T08:32:36.719Z,54.37
2022-11-25T08:33:38.557Z,54.31
2022-11-25T08:34:40.391Z,54.34
2022-11-25T08:35:42.161Z,54.29
2022-11-25T08:36:48.245Z,54.35
2022-11-25T08:37:48.845Z,54.39
2022-11-25T08:38:50.791Z,54.38
2022-11-25T08:39:54.104Z,54.38
2022-11-25T08:40:56.222Z,54.38
2022-11-25T08:41:58.035Z,54.35
2022-11-25T08:42:59.966Z,54.36
2022-11-25T08:44:01.836Z,54.34
2022-11-25T08:45:03.640Z,54.34
2022-11-25T08:46:05.969Z,54.33
2022-11-25T08:47:08.965Z,54.37
2022-11-25T08:48:10.802Z,54.39
2022-11-25T08:49:12.672Z,54.37
2022-11-25T08:50:14.477Z,54.41
2022-11-25T08:51:16.277Z,54.44
2022-11-25T08:52:18.106Z,54.42
2022-11-25T08:53:19.928Z,54.41
2022-11-25T08:54:21.761Z,54.43
2022-11-25T08:55:23.585Z,54.46
2022-11-25T08:56:26.403Z,54.47
2022-11-25T08:57:28.434Z,54.48
2022-11-25T08:58:30.241Z,54.56
2022-11-25T08:59:32.105Z,54.64
2022-11-25T09:00:34.031Z,54.66
2022-11-25T09:01:36.037Z,54.62
2022-11-25T09:02:37.941Z,54.57
2022-11-25T09:03:39.729Z,54.57
2022-11-25T09:04:41.589Z,54.61
2022-11-25T09:05:43.417Z,54.69
2022-11-25T09:06:45.419Z,54.63
2022-11-25T09:07:48.324Z,54.59
2022-11-25T09:08:50.139Z,54.67
2022-11-25T09:09:51.992Z,54.75
2022-11-25T09:10:54.243Z,54.72
2022-11-25T09:11:56.125Z,54.81
2022-11-25T09:12:57.919Z,54.83
2022-11-25T09:13:59.811Z,54.85
2022-11-25T09:15:01.732Z,54.85
2022-11-25T09:16:03.731Z,54.86
2022-11-25T09:17:05.557Z,54.80
2022-11-25T09:18:07.383Z,54.68
2022-11-25T09:19:09.202Z,54.63
2022-11-25T09:20:11.122Z,54.62
2022-11-25T09:21:12.924Z,54.64
2022-11-25T09:22:14.736Z,54.66
2022-11-25T09:23:16.547Z,54.71
2022-11-25T09:24:18.378Z,54.78
2022-11-25T09:25:20.210Z,54.89
2022-11-25T09:26:22.273Z,54.96
2022-11-25T09:27:24.090Z,54.95
2022-11-25T09:28:28.142Z,54.98
2022-11-25T09:29:29.984Z,55.00
2022-11-25T09:30:31.966Z,55.00
2022-11-25T09:31:33.969Z,54.99
2022-11-25T09:32:35.777Z,55.03
2022-11-25T09:33:37.600Z,55.08
2022-11-25T09:34:39.517Z,55.13
2022-11-25T09:35:41.441Z,55.16
2022-11-25T09:36:43.361Z,55.24
2022-11-25T09:37:45.175Z,55.26
2022-11-25T09:38:47.004Z,55.30
2022-11-25T09:39:48.800Z,55.27
2022-11-25T09:40:51.633Z,55.31
2022-11-25T09:41:53.729Z,55.35
2022-11-25T09:42:55.502Z,55.36
2022-11-25T09:43:57.291Z,55.33
2022-11-25T09:44:59.104Z,55.29
2022-11-25T09:46:00.997Z,55.24
2022-11-25T09:47:02.857Z,55.25
2022-11-25T09:48:04.686Z,55.27
2022-11-25T09:49:06.509Z,55.21
2022-11-25T09:50:09.040Z,55.18
2022-11-25T09:51:10.897Z,55.19
2022-11-25T09:52:12.675Z,55.24
2022-11-25T09:53:14.519Z,55.29
2022-11-25T09:54:16.325Z,55.33
2022-11-25T09:55:18.132Z,55.34
2022-11-25T09:56:20.408Z,55.33
2022-11-25T09:57:22.299Z,55.32
2022-11-25T09:58:24.093Z,55.31
2022-11-25T09:59:25.908Z,55.27
2022-11-25T10:00:27.729Z,55.30
2022-11-25T10:01:29.576Z,55.41
2022-11-25T10:02:31.584Z,55.42
2022-11-25T10:03:33.662Z,55.44
2022-11-25T10:04:36.030Z,55.44
2022-11-25T10:05:37.868Z,55.55
2022-11-25T10:06:39.856Z,55.62
2022-11-25T10:07:41.735Z,55.75
2022-11-25T10:08:43.542Z,55.78
2022-11-25T10:09:45.364Z,55.79
2022-11-25T10:10:47.276Z,55.79
2022-11-25T10:11:49.173Z,55.80
2022-11-25T10:12:51.030Z,55.81
2022-11-25T10:13:52.834Z,55.85
2022-11-25T10:14:54.750Z,55.80
2022-11-25T10:15:56.570Z,55.84
2022-11-25T10:16:58.566Z,55.85
2022-11-25T10:18:00.353Z,55.81
2022-11-25T10:19:02.191Z,55.87
2022-11-25T10:20:04.117Z,55.85
2022-11-25T10:21:05.921Z,55.84
2022-11-25T10:22:07.747Z,55.92
2022-11-25T10:23:09.558Z,56.02
2022-11-25T10:24:11.383Z,56.07
2022-11-25T10:25:13.194Z,56.04
2022-11-25T10:26:15.001Z,56.02
2022-11-25T10:27:16.867Z,56.01
2022-11-25T10:28:18.725Z,55.98
2022-11-25T10:29:20.549Z,55.95
2022-11-25T10:30:22.359Z,55.99
2022-11-25T10:31:24.237Z,56.04
2022-11-25T10:32:26.142Z,56.00
2022-11-25T10:33:27.957Z,56.04
2022-11-25T10:34:29.790Z,56.04
2022-11-25T10:35:31.596Z,56.02
2022-11-25T10:36:33.513Z,55.98
2022-11-25T10:37:35.394Z,55.93
2022-11-25T10:38:37.209Z,55.96
2022-11-25T10:39:39.038Z,55.96
2022-11-25T10:40:40.951Z,55.95
2022-11-25T10:41:42.794Z,55.94
2022-11-25T10:42:44.640Z,55.95
2022-11-25T10:43:46.509Z,55.97
2022-11-25T10:44:48.338Z,55.94
2022-11-25T10:45:50.126Z,55.94
2022-11-25T10:47:12.930Z,55.99
2022-11-25T10:47:55.745Z,55.97
2022-11-25T10:48:57.601Z,55.99
2022-11-25T10:49:59.415Z,55.98
2022-11-25T10:51:01.346Z,55.97
2022-11-25T10:52:03.166Z,56.01
2022-11-25T10:53:05.029Z,56.01
2022-11-25T10:54:06.819Z,56.04
2022-11-25T10:55:08.645Z,56.02
2022-11-25T10:56:10.650Z,56.05
2022-11-25T10:57:12.453Z,56.12
2022-11-25T10:58:14.327Z,56.19
2022-11-25T10:59:16.257Z,56.18
2022-11-25T11:00:19.349Z,56.17
2022-11-25T11:01:22.218Z,56.15
2022-11-25T11:02:24.218Z,56.14
2022-11-25T11:03:26.221Z,56.13
2022-11-25T11:04:28.129Z,56.12
2022-11-25T11:05:29.950Z,56.19
2022-11-25T11:06:31.862Z,56.23
2022-11-25T11:07:33.767Z,56.26
2022-11-25T11:08:35.669Z,56.27
2022-11-25T11:09:37.522Z,56.26
2022-11-25T11:10:39.757Z,56.24
2022-11-25T11:11:41.751Z,56.18
2022-11-25T11:12:43.598Z,56.13
2022-11-25T11:13:45.418Z,56.19
2022-11-25T11:14:47.293Z,56.28
2022-11-25T11:15:49.149Z,56.28
2022-11-25T11:16:51.289Z,56.31
2022-11-25T11:17:53.079Z,56.30
2022-11-25T11:18:54.882Z,56.30
2022-11-25T11:19:56.861Z,56.36
2022-11-25T11:20:58.781Z,56.36
2022-11-25T11:22:00.561Z,56.39
2022-11-25T11:23:08.343Z,56.42
2022-11-25T11:24:06.015Z,56.47
2022-11-25T11:25:07.897Z,56.47
2022-11-25T11:26:09.863Z,56.53
2022-11-25T11:27:11.624Z,56.42
2022-11-25T11:28:13.432Z,56.41
2022-11-25T11:29:15.244Z,56.42
2022-11-25T11:30:17.184Z,56.35
2022-11-25T11:31:19.164Z,56.34
2022-11-25T11:32:21.040Z,56.33
2022-11-25T11:33:22.893Z,56.38
2022-11-25T11:34:24.700Z,56.42
2022-11-25T11:35:26.576Z,56.46
2022-11-25T11:36:28.506Z,56.44
2022-11-25T11:37:30.323Z,56.36
2022-11-25T11:38:32.149Z,56.32
2022-11-25T11:39:33.992Z,56.33
2022-11-25T11:40:35.966Z,56.34
2022-11-25T11:41:37.795Z,56.35
2022-11-25T11:42:39.589Z,56.38
2022-11-25T11:43:41.407Z,56.44
2022-11-25T11:44:43.219Z,56.47
2022-11-25T11:45:45.164Z,56.60
2022-11-25T11:46:47.047Z,56.72
2022-11-25T11:47:48.983Z,56.80
2022-11-25T11:48:53.448Z,56.90
2022-11-25T11:49:54.415Z,56.98
2022-11-25T11:50:56.426Z,57.00
2022-11-25T11:51:58.234Z,57.05
2022-11-25T11:53:00.049Z,57.05
2022-11-25T11:54:01.874Z,57.08
2022-11-25T11:55:03.712Z,57.13
2022-11-25T11:56:33.492Z,57.11
2022-11-25T11:57:09.175Z,57.11
2022-11-25T11:58:10.988Z,57.06
2022-11-25T11:59:12.791Z,57.04
2022-11-25T12:00:14.747Z,57.01
2022-11-25T12:01:16.751Z,56.95
2022-11-25T12:02:18.826Z,56.94
2022-11-25T12:03:20.789Z,56.88
2022-11-25T12:04:22.640Z,56.89
2022-11-25T12:05:24.464Z,56.92
2022-11-25T12:06:26.419Z,56.94
2022-11-25T12:07:28.253Z,56.90
2022-11-25T12:08:30.022Z,56.88
2022-11-25T12:09:31.835Z,56.86
2022-11-25T12:10:33.767Z,56.89
2022-11-25T12:11:35.614Z,56.94
2022-11-25T12:12:37.418Z,56.99
2022-11-25T12:13:39.218Z,56.96
2022-11-25T12:14:41.023Z,56.92
2022-11-25T12:15:42.839Z,56.93
2022-11-25T12:16:44.791Z,56.94
2022-11-25T12:17:46.674Z,57.00
2022-11-25T12:18:48.475Z,57.06
2022-11-25T12:19:50.351Z,57.05
2022-11-25T12:20:52.228Z,57.03
2022-11-25T12:21:54.090Z,56.99
2022-11-25T12:22:55.886Z,57.00
2022-11-25T12:23:57.726Z,57.07
2022-11-25T12:24:59.602Z,57.08
2022-11-25T12:26:01.431Z,57.10
2022-11-25T12:27:03.274Z,57.23
2022-11-25T12:28:05.109Z,57.31
2022-11-25T12:29:06.919Z,57.33
2022-11-25T12:30:09.123Z,57.37
2022-11-25T12:31:10.961Z,57.38
2022-11-25T12:32:12.962Z,57.44
2022-11-25T12:33:14.767Z,57.49
2022-11-25T12:34:16.603Z,57.45
2022-11-25T12:35:18.414Z,57.45
2022-11-25T12:36:20.331Z,57.46
2022-11-25T12:37:22.196Z,57.41
2022-11-25T12:38:24.072Z,57.50
2022-11-25T12:39:25.902Z,57.59
2022-11-25T12:40:27.795Z,57.64
2022-11-25T12:41:29.610Z,57.67
2022-11-25T12:42:31.593Z,57.63
2022-11-25T12:43:33.385Z,57.66
2022-11-25T12:44:35.584Z,57.72
2022-11-25T12:45:38.937Z,57.74
2022-11-25T12:46:44.546Z,57.74
2022-11-25T12:47:49.527Z,57.70
2022-11-25T12:48:51.368Z,57.76
2022-11-25T12:49:53.185Z,57.77
2022-11-25T12:50:55.320Z,57.75
2022-11-25T12:51:57.140Z,57.77
2022-11-25T12:52:59.015Z,57.76
2022-11-25T12:54:00.880Z,57.79
2022-11-25T12:55:02.692Z,57.80
2022-11-25T12:56:04.600Z,57.90
2022-11-25T12:57:06.461Z,58.06
2022-11-25T12:58:08.316Z,58.13
2022-11-25T12:59:10.123Z,58.19
2022-11-25T13:00:40.037Z,58.25
2022-11-25T13:01:15.926Z,58.27
2022-11-25T13:02:17.829Z,58.35
2022-11-25T13:03:19.829Z,58.37
2022-11-25T13:04:21.639Z,58.38
2022-11-25T13:06:27.166Z,58.25
2022-11-25T13:07:28.996Z,58.20
2022-11-25T13:08:30.908Z,58.18
2022-11-25T13:09:32.730Z,58.20
2022-11-25T13:10:34.643Z,58.18
2022-11-25T13:10:55.633Z,58.25
2022-11-25T13:11:36.847Z,58.12
2022-11-25T13:12:39.284Z,58.15
2022-11-25T13:13:41.805Z,58.14
2022-11-25T13:14:44.346Z,58.09
2022-11-25T13:15:46.907Z,58.06
2022-11-25T13:16:49.799Z,58.02
2022-11-25T13:17:52.156Z,58.02
2022-11-25T13:18:54.067Z,58.04